createdAt,value
2023-05-25T00:01:56.207Z,16.70
2023-05-25T00:04:23.442Z,16.72
2023-05-25T00:06:56.968Z,16.67
2023-05-25T00:09:19.820Z,16.66
2023-05-25T00:11:55.459Z,16.64
2023-05-25T00:14:32.147Z,16.57
2023-05-25T00:16:52.766Z,16.46
2023-05-25T00:19:29.497Z,16.42
2023-05-25T00:22:05.404Z,16.37
2023-05-25T00:24:34.860Z,16.29
2023-05-25T00:26:55.589Z,16.24
2023-05-25T00:29:19.144Z,16.20
2023-05-25T00:31:54.264Z,16.09
2023-05-25T00:34:30.438Z,15.97
2023-05-25T00:37:05.023Z,15.77
2023-05-25T00:39:31.610Z,15.57
2023-05-25T00:41:53.571Z,15.53
2023-05-25T00:44:22.795Z,15.54
2023-05-25T00:46:57.585Z,15.53
2023-05-25T00:49:20.646Z,15.50
2023-05-25T00:51:55.864Z,15.51
2023-05-25T00:54:30.633Z,15.49
2023-05-25T00:57:05.591Z,15.44
2023-05-25T00:59:46.831Z,15.46
2023-05-25T01:02:12.027Z,15.46
2023-05-25T01:04:46.611Z,15.45
2023-05-25T01:07:21.137Z,15.47
2023-05-25T01:10:00.425Z,15.62
2023-05-25T01:12:26.101Z,15.69
2023-05-25T01:15:03.527Z,15.68
2023-05-25T01:17:41.496Z,15.72
2023-05-25T01:22:41.549Z,15.65
2023-05-25T01:25:23.755Z,15.45
2023-05-25T01:27:57.909Z,15.41
2023-05-25T01:30:28.770Z,15.45
2023-05-25T01:32:57.009Z,15.46
2023-05-25T01:35:25.841Z,15.50
2023-05-25T01:38:04.989Z,15.57
2023-05-25T01:40:26.621Z,15.62
2023-05-25T01:43:02.268Z,15.62
2023-05-25T01:45:29.903Z,15.53
2023-05-25T01:48:29.437Z,15.47
2023-05-25T01:51:08.518Z,15.40
2023-05-25T01:53:46.219Z,15.35
2023-05-25T01:56:22.797Z,15.33
2023-05-25T01:58:52.023Z,15.30
2023-05-25T02:01:20.570Z,15.23
2023-05-25T02:03:56.700Z,15.14
2023-05-25T02:06:22.596Z,15.17
2023-05-25T02:08:57.829Z,15.16
2023-05-25T02:11:32.892Z,15.15
2023-05-25T02:13:49.861Z,15.10
2023-05-25T02:16:21.402Z,15.04
2023-05-25T02:18:56.330Z,14.99
2023-05-25T02:21:30.125Z,14.91
2023-05-25T02:24:04.812Z,14.83
2023-05-25T02:26:31.234Z,14.80
2023-05-25T02:29:05.470Z,14.75
2023-05-25T02:31:32.740Z,14.70
2023-05-25T02:34:07.096Z,14.70
2023-05-25T02:36:33.080Z,14.66
2023-05-25T02:39:10.083Z,14.65
2023-05-25T02:41:43.934Z,14.64
2023-05-25T02:44:18.100Z,14.59
2023-05-25T02:46:48.585Z,14.57
2023-05-25T02:49:16.033Z,14.52
2023-05-25T02:51:43.689Z,14.44
2023-05-25T02:54:12.811Z,14.42
2023-05-25T02:56:48.340Z,14.38
2023-05-25T02:59:09.081Z,14.37
2023-05-25T03:01:41.860Z,14.34
2023-05-25T03:04:17.073Z,14.28
2023-05-25T03:06:46.495Z,14.26
2023-05-25T03:09:21.355Z,14.23
2023-05-25T03:11:56.038Z,14.20
2023-05-25T03:14:24.717Z,14.21
2023-05-25T03:16:43.613Z,14.22
2023-05-25T03:19:03.085Z,14.22
2023-05-25T03:21:38.796Z,14.22
2023-05-25T03:24:13.535Z,14.18
2023-05-25T03:26:47.494Z,14.15
2023-05-25T03:29:15.129Z,14.13
2023-05-25T03:31:34.813Z,14.10
2023-05-25T03:34:09.213Z,14.07
2023-05-25T03:36:28.949Z,14.05
2023-05-25T03:39:03.280Z,14.03
2023-05-25T03:41:38.211Z,14.00
2023-05-25T03:43:58.400Z,13.96
2023-05-25T03:46:23.834Z,13.93
2023-05-25T03:48:59.183Z,13.88
2023-05-25T03:51:27.332Z,13.87
2023-05-25T03:54:01.281Z,13.86
2023-05-25T03:56:27.498Z,13.85
2023-05-25T03:58:51.809Z,13.80
2023-05-25T04:01:30.268Z,13.77
2023-05-25T04:03:56.766Z,13.74
2023-05-25T04:06:32.292Z,13.69
2023-05-25T04:08:55.778Z,13.65
2023-05-25T04:11:11.624Z,13.63
2023-05-25T04:13:26.449Z,13.61
2023-05-25T04:15:42.551Z,13.59
2023-05-25T04:18:06.142Z,13.57
2023-05-25T04:20:21.775Z,13.55
2023-05-25T04:22:40.358Z,13.56
2023-05-25T04:24:55.520Z,13.55
2023-05-25T04:27:29.690Z,13.54
2023-05-25T04:29:51.567Z,13.51
2023-05-25T04:32:33.191Z,13.46
2023-05-25T04:35:17.617Z,13.41
2023-05-25T04:37:33.778Z,13.38
2023-05-25T04:40:13.478Z,13.32
2023-05-25T04:42:32.578Z,13.25
2023-05-25T04:44:59.725Z,13.21
2023-05-25T04:47:36.390Z,13.19
2023-05-25T04:49:59.273Z,13.15
2023-05-25T04:52:16.622Z,13.09
2023-05-25T04:54:31.568Z,13.04
2023-05-25T04:56:48.163Z,12.99
2023-05-25T04:59:01.998Z,12.94
2023-05-25T05:01:16.793Z,12.88
2023-05-25T05:03:31.111Z,12.81
2023-05-25T05:05:47.007Z,12.75
2023-05-25T05:08:07.201Z,12.71
2023-05-25T05:10:21.909Z,12.63
2023-05-25T05:12:41.928Z,12.58
2023-05-25T05:14:57.329Z,12.53
2023-05-25T05:17:16.529Z,12.51
2023-05-25T05:19:30.338Z,12.48
2023-05-25T05:22:06.430Z,12.44
2023-05-25T05:24:22.787Z,12.40
2023-05-25T05:26:59.216Z,12.36
2023-05-25T05:29:40.688Z,12.31
2023-05-25T05:32:09.993Z,12.25
2023-05-25T05:34:44.064Z,12.20
2023-05-25T05:37:18.570Z,12.17
2023-05-25T05:39:39.251Z,12.15
2023-05-25T05:42:13.817Z,12.13
2023-05-25T05:44:48.147Z,12.10
2023-05-25T05:47:22.443Z,12.06
2023-05-25T05:49:57.177Z,12.03
2023-05-25T05:52:21.153Z,12.00
2023-05-25T05:54:56.066Z,11.97
2023-05-25T05:57:30.403Z,11.94
2023-05-25T06:00:07.907Z,11.92
2023-05-25T06:02:34.552Z,11.89
2023-05-25T06:05:11.149Z,11.87
2023-05-25T06:07:46.300Z,11.83
2023-05-25T06:10:16.698Z,11.79
2023-05-25T06:12:51.205Z,11.73
2023-05-25T06:15:11.707Z,11.70
2023-05-25T06:17:45.916Z,11.68
2023-05-25T06:20:16.491Z,11.67
2023-05-25T06:22:49.330Z,11.64
2023-05-25T06:25:23.423Z,11.60
2023-05-25T06:27:45.052Z,11.59
2023-05-25T06:30:01.366Z,11.58
2023-05-25T06:32:27.325Z,11.57
2023-05-25T06:34:50.047Z,11.59
2023-05-25T06:37:11.490Z,11.59
2023-05-25T06:39:47.225Z,11.61
2023-05-25T06:42:15.556Z,11.63
2023-05-25T06:44:52.167Z,11.66
2023-05-25T06:47:26.317Z,11.69
2023-05-25T06:50:00.677Z,11.75
2023-05-25T06:52:29.356Z,11.79
2023-05-25T06:55:05.007Z,11.83
2023-05-25T06:57:38.754Z,11.87
2023-05-25T07:00:09.882Z,11.88
2023-05-25T07:02:37.343Z,11.89
2023-05-25T07:05:04.014Z,11.91
2023-05-25T07:07:24.349Z,11.94
2023-05-25T07:09:52.625Z,11.97
2023-05-25T07:12:19.360Z,12.01
2023-05-25T07:14:53.798Z,12.04
2023-05-25T07:17:20.079Z,12.06
2023-05-25T07:19:54.208Z,12.07
2023-05-25T07:22:14.392Z,12.10
2023-05-25T07:24:49.879Z,12.10
2023-05-25T07:27:24.044Z,12.11
2023-05-25T07:29:43.239Z,12.12
2023-05-25T07:32:08.402Z,12.13
2023-05-25T07:34:39.494Z,12.12
2023-05-25T07:37:15.772Z,12.12
2023-05-25T07:39:44.463Z,12.11
2023-05-25T07:42:22.163Z,12.10
2023-05-25T07:44:45.784Z,12.07
2023-05-25T07:47:14.922Z,12.04
2023-05-25T07:49:49.821Z,11.98
2023-05-25T07:52:23.551Z,11.95
2023-05-25T07:54:52.494Z,11.93
2023-05-25T07:57:29.169Z,11.89
2023-05-25T08:00:03.002Z,11.86
2023-05-25T08:02:26.208Z,11.85
2023-05-25T08:04:58.952Z,11.82
2023-05-25T08:07:20.300Z,11.79
2023-05-25T08:09:47.252Z,11.77
2023-05-25T08:12:38.615Z,11.72
2023-05-25T08:15:17.490Z,11.68
2023-05-25T08:17:38.010Z,11.66
2023-05-25T08:20:13.720Z,11.63
2023-05-25T08:22:39.428Z,11.61
2023-05-25T08:25:16.348Z,11.58
2023-05-25T08:27:43.104Z,11.55
2023-05-25T08:30:19.742Z,11.50
2023-05-25T08:32:44.903Z,11.45
2023-05-25T08:35:21.798Z,11.42
2023-05-25T08:37:50.174Z,11.39
2023-05-25T08:40:26.421Z,11.34
2023-05-25T08:42:54.664Z,11.30
2023-05-25T08:45:49.657Z,11.28
2023-05-25T08:48:35.724Z,11.28
2023-05-25T08:51:04.798Z,11.28
2023-05-25T08:53:34.129Z,11.28
2023-05-25T08:56:10.871Z,11.27
2023-05-25T08:58:45.932Z,11.26
2023-05-25T09:01:23.426Z,11.26
2023-05-25T09:03:49.200Z,11.24
2023-05-25T09:06:26.520Z,11.22
2023-05-25T09:09:01.548Z,11.19
2023-05-25T09:11:40.679Z,11.17
2023-05-25T09:14:15.213Z,11.14
2023-05-25T09:16:47.220Z,11.11
2023-05-25T09:19:23.243Z,11.10
2023-05-25T09:21:46.473Z,11.05
2023-05-25T09:24:23.473Z,10.96
2023-05-25T09:26:50.784Z,10.88
2023-05-25T09:29:20.982Z,10.79
2023-05-25T09:31:54.230Z,10.72
2023-05-25T09:34:35.215Z,10.65
2023-05-25T09:37:17.697Z,10.57
2023-05-25T09:39:47.175Z,10.51
2023-05-25T09:42:22.593Z,10.44
2023-05-25T09:44:58.995Z,10.39
2023-05-25T09:47:26.832Z,10.36
2023-05-25T09:49:55.731Z,10.31
2023-05-25T09:52:30.744Z,10.26
2023-05-25T09:54:52.575Z,10.22
2023-05-25T09:57:19.138Z,10.18
2023-05-25T09:59:55.547Z,10.15
2023-05-25T10:02:25.452Z,10.15
2023-05-25T10:04:49.761Z,10.15
2023-05-25T10:07:29.409Z,10.14
2023-05-25T10:09:59.262Z,10.13
2023-05-25T10:12:35.490Z,10.11
2023-05-25T10:15:11.703Z,10.11
2023-05-25T10:17:52.389Z,10.10
2023-05-25T10:20:18.051Z,10.06
2023-05-25T10:23:00.611Z,10.00
2023-05-25T10:25:29.531Z,9.95
2023-05-25T10:28:03.783Z,9.92
2023-05-25T10:30:27.246Z,9.91
2023-05-25T10:33:02.887Z,9.90
2023-05-25T10:35:27.329Z,9.89
2023-05-25T10:38:00.197Z,9.88
2023-05-25T10:40:20.118Z,9.87
2023-05-25T10:42:45.179Z,9.88
2023-05-25T10:45:20.087Z,9.88
2023-05-25T10:47:45.194Z,9.89
2023-05-25T10:50:29.895Z,9.91
2023-05-25T10:53:08.933Z,9.92
2023-05-25T10:55:45.652Z,9.91
2023-05-25T10:58:17.443Z,9.91
2023-05-25T11:01:04.147Z,9.93
2023-05-25T11:03:56.624Z,9.94
2023-05-25T11:07:06.618Z,9.93
2023-05-25T11:09:44.646Z,9.92
2023-05-25T11:12:21.952Z,9.90
2023-05-25T11:15:24.479Z,9.90
2023-05-25T11:18:17.876Z,9.88
2023-05-25T11:20:36.560Z,9.84
2023-05-25T11:23:24.200Z,9.78
2023-05-25T11:25:55.442Z,9.72
2023-05-25T11:28:23.542Z,9.68
2023-05-25T11:30:51.967Z,9.63
2023-05-25T11:33:18.732Z,9.58
2023-05-25T11:35:54.771Z,9.53
2023-05-25T11:38:23.211Z,9.51
2023-05-25T11:40:42.171Z,9.49
2023-05-25T11:43:03.133Z,9.49
2023-05-25T11:45:39.765Z,9.49
2023-05-25T11:48:16.539Z,9.49
2023-05-25T11:50:41.799Z,9.53
2023-05-25T11:53:11.718Z,9.53
2023-05-25T11:55:42.169Z,9.55
2023-05-25T11:58:11.293Z,9.59
2023-05-25T12:00:46.437Z,9.57
2023-05-25T12:03:31.841Z,9.54
2023-05-25T12:06:00.473Z,9.45
2023-05-25T12:08:38.870Z,9.39
2023-05-25T12:11:14.695Z,9.34
2023-05-25T12:13:50.176Z,9.36
2023-05-25T12:16:24.646Z,9.42
2023-05-25T12:19:00.057Z,9.54
2023-05-25T12:21:22.395Z,9.65
2023-05-25T12:23:50.207Z,9.76
2023-05-25T12:26:18.985Z,9.84
2023-05-25T12:29:05.737Z,9.90
2023-05-25T12:31:42.430Z,9.94
2023-05-25T12:34:14.698Z,9.97
2023-05-25T12:36:52.807Z,9.97
2023-05-25T12:39:40.346Z,9.97
2023-05-25T12:42:20.385Z,9.98
2023-05-25T12:44:45.319Z,9.99
2023-05-25T12:47:23.619Z,9.99
2023-05-25T12:49:50.330Z,10.02
2023-05-25T12:52:36.639Z,10.04
2023-05-25T12:55:27.016Z,10.06
2023-05-25T12:57:53.683Z,10.08
2023-05-25T13:00:31.309Z,10.08
2023-05-25T13:03:02.256Z,10.09
2023-05-25T13:05:38.672Z,10.09
2023-05-25T13:08:13.069Z,10.10
2023-05-25T13:10:37.445Z,10.10
2023-05-25T13:13:05.948Z,10.09
2023-05-25T13:15:32.187Z,10.10
2023-05-25T13:17:55.466Z,10.10
2023-05-25T13:20:30.768Z,10.10
2023-05-25T13:22:56.815Z,10.09
2023-05-25T13:25:20.377Z,10.10
2023-05-25T13:27:55.428Z,10.10
2023-05-25T13:30:30.142Z,10.13
2023-05-25T13:32:59.569Z,10.15
2023-05-25T13:35:47.116Z,10.18
2023-05-25T13:38:20.821Z,10.19
2023-05-25T13:40:45.396Z,10.21
2023-05-25T13:43:19.058Z,10.23
2023-05-25T13:45:54.305Z,10.29
2023-05-25T13:48:28.816Z,10.32
2023-05-25T13:51:04.570Z,10.35
2023-05-25T13:53:37.931Z,10.40
2023-05-25T13:56:04.402Z,10.45
2023-05-25T13:58:39.685Z,10.48
2023-05-25T14:01:15.136Z,10.54
2023-05-25T14:03:48.832Z,10.58
2023-05-25T14:06:22.743Z,10.67
2023-05-25T14:08:45.728Z,10.78
2023-05-25T14:11:27.343Z,10.93
2023-05-25T14:13:54.530Z,11.09
2023-05-25T14:16:21.354Z,11.23
2023-05-25T14:18:56.627Z,11.36
2023-05-25T14:21:25.542Z,11.48
2023-05-25T14:23:54.056Z,11.56
2023-05-25T14:26:30.010Z,11.63
2023-05-25T14:28:52.799Z,11.69
2023-05-25T14:31:26.887Z,11.74
2023-05-25T14:33:52.750Z,11.82
2023-05-25T14:36:20.793Z,11.88
2023-05-25T14:38:55.855Z,11.98
2023-05-25T14:41:23.859Z,12.05
2023-05-25T14:43:43.322Z,12.09
2023-05-25T14:46:02.838Z,12.12
2023-05-25T14:48:29.392Z,12.17
2023-05-25T14:50:52.529Z,12.23
2023-05-25T14:53:26.518Z,12.29
2023-05-25T14:56:00.626Z,12.36
2023-05-25T14:58:35.383Z,12.44
2023-05-25T15:00:54.308Z,12.51
2023-05-25T15:03:27.009Z,12.52
2023-05-25T15:05:57.957Z,12.58
2023-05-25T15:08:26.617Z,12.63
2023-05-25T15:11:02.194Z,12.75
2023-05-25T15:13:30.983Z,12.86
2023-05-25T15:16:10.209Z,12.97
2023-05-25T15:18:36.447Z,13.10
2023-05-25T15:21:15.888Z,13.21
2023-05-25T15:23:52.350Z,13.30
2023-05-25T15:26:26.801Z,13.40
2023-05-25T15:29:01.796Z,13.50
2023-05-25T15:31:30.273Z,13.57
2023-05-25T15:34:06.676Z,13.69
2023-05-25T15:36:39.183Z,13.87
2023-05-25T15:39:14.273Z,14.10
2023-05-25T15:41:37.732Z,14.23
2023-05-25T15:44:02.422Z,14.37
2023-05-25T15:46:21.853Z,14.47
2023-05-25T15:48:43.203Z,14.63
2023-05-25T15:51:18.137Z,14.78
2023-05-25T15:53:44.770Z,14.83
2023-05-25T15:56:11.409Z,14.84
2023-05-25T15:58:36.333Z,14.90
2023-05-25T16:01:10.749Z,14.92
2023-05-25T16:03:36.677Z,14.98
2023-05-25T16:06:00.912Z,15.11
2023-05-25T16:08:25.992Z,15.16
2023-05-25T16:10:51.740Z,15.19
2023-05-25T16:13:27.587Z,15.23
2023-05-25T16:15:59.378Z,15.21
2023-05-25T16:18:28.800Z,15.17
2023-05-25T16:21:02.700Z,15.13
2023-05-25T16:23:28.184Z,15.15
2023-05-25T16:25:49.677Z,15.15
2023-05-25T16:28:16.174Z,15.07
2023-05-25T16:30:46.922Z,15.05
2023-05-25T16:33:15.510Z,15.04
2023-05-25T16:35:49.565Z,15.05
2023-05-25T16:38:06.916Z,14.99
2023-05-25T16:40:31.359Z,15.03
2023-05-25T16:43:00.899Z,15.12
2023-05-25T16:45:36.235Z,15.09
2023-05-25T16:48:03.866Z,15.10
2023-05-25T16:50:38.851Z,15.16
2023-05-25T16:53:07.910Z,15.06
2023-05-25T16:55:34.606Z,14.98
2023-05-25T16:58:10.864Z,14.93
2023-05-25T17:00:45.388Z,14.93
2023-05-25T17:03:19.408Z,14.94
2023-05-25T17:05:40.838Z,14.95
2023-05-25T17:08:16.049Z,15.02
2023-05-25T17:10:54.628Z,15.04
2023-05-25T17:13:22.617Z,15.06
2023-05-25T17:15:45.899Z,15.09
2023-05-25T17:18:20.714Z,15.13
2023-05-25T17:20:55.079Z,15.22
2023-05-25T17:23:22.096Z,15.27
2023-05-25T17:25:43.592Z,15.25
2023-05-25T17:28:04.664Z,15.30
2023-05-25T17:30:27.527Z,15.35
2023-05-25T17:32:50.363Z,15.39
2023-05-25T17:35:14.217Z,15.45
2023-05-25T17:37:40.934Z,15.52
2023-05-25T17:40:08.677Z,15.57
2023-05-25T17:42:34.981Z,15.63
2023-05-25T17:44:58.157Z,15.70
2023-05-25T17:47:25.254Z,15.78
2023-05-25T17:49:54.527Z,15.82
2023-05-25T17:52:28.282Z,15.89
2023-05-25T17:55:01.718Z,15.91
2023-05-25T17:57:23.481Z,15.99
2023-05-25T17:59:50.351Z,16.09
2023-05-25T18:02:20.868Z,16.21
2023-05-25T18:04:38.010Z,16.26
2023-05-25T18:07:04.363Z,16.33
2023-05-25T18:09:25.270Z,16.41
2023-05-25T18:11:57.428Z,16.57
2023-05-25T18:14:24.654Z,16.68
2023-05-25T18:16:48.721Z,16.70
2023-05-25T18:19:23.737Z,16.74
2023-05-25T18:21:58.383Z,16.82
2023-05-25T18:24:33.260Z,16.91
2023-05-25T18:26:55.632Z,17.02
2023-05-25T18:29:29.824Z,17.00
2023-05-25T18:31:48.509Z,16.91
2023-05-25T18:34:20.782Z,16.91
2023-05-25T18:36:48.703Z,16.92
2023-05-25T18:39:19.619Z,17.01
2023-05-25T18:41:40.773Z,17.15
2023-05-25T18:44:00.285Z,17.24
2023-05-25T18:46:29.615Z,17.31
2023-05-25T18:49:02.296Z,17.33
2023-05-25T18:51:27.377Z,17.33
2023-05-25T18:53:53.636Z,17.43
2023-05-25T18:56:28.660Z,17.59
2023-05-25T18:58:56.654Z,17.69
2023-05-25T19:01:21.094Z,17.77
2023-05-25T19:03:58.069Z,17.88
2023-05-25T19:06:22.899Z,18.00
2023-05-25T19:08:57.864Z,18.02
2023-05-25T19:11:33.464Z,18.10
2023-05-25T19:14:08.425Z,18.04
2023-05-25T19:16:45.188Z,18.05
2023-05-25T19:19:21.217Z,18.12
2023-05-25T19:21:56.379Z,18.19
2023-05-25T19:24:29.060Z,18.13
2023-05-25T19:27:01.318Z,17.90
2023-05-25T19:29:21.808Z,17.80
2023-05-25T19:31:58.694Z,17.74
2023-05-25T19:34:27.442Z,17.72
2023-05-25T19:37:10.956Z,17.58
2023-05-25T19:39:43.699Z,17.37
2023-05-25T19:42:18.110Z,17.11
2023-05-25T19:44:46.560Z,16.98
2023-05-25T19:47:21.872Z,16.79
2023-05-25T19:49:57.763Z,16.60
2023-05-25T19:52:33.605Z,16.51
2023-05-25T19:54:57.606Z,16.47
2023-05-25T19:57:32.178Z,16.48
2023-05-25T20:00:11.405Z,16.49
2023-05-25T20:02:55.259Z,16.49
2023-05-25T20:05:29.344Z,16.52
2023-05-25T20:07:57.297Z,16.52
2023-05-25T20:10:33.939Z,16.39
2023-05-25T20:13:07.580Z,16.28
2023-05-25T20:15:41.502Z,16.26
2023-05-25T20:18:10.225Z,16.30
2023-05-25T20:20:35.157Z,16.31
2023-05-25T20:22:59.554Z,16.30
2023-05-25T20:25:23.814Z,16.33
2023-05-25T20:27:57.968Z,16.31
2023-05-25T20:30:27.390Z,16.32
2023-05-25T20:32:55.792Z,16.30
2023-05-25T20:35:30.600Z,16.27
2023-05-25T20:38:04.270Z,16.23
2023-05-25T20:40:40.746Z,16.26
2023-05-25T20:43:15.486Z,16.28
2023-05-25T20:45:43.963Z,16.28
2023-05-25T20:48:09.128Z,16.22
2023-05-25T20:50:37.679Z,16.19
2023-05-25T20:53:12.184Z,16.21
2023-05-25T20:55:35.931Z,16.26
2023-05-25T20:58:02.070Z,16.31
2023-05-25T21:00:36.160Z,16.33
2023-05-25T21:03:11.423Z,16.36
2023-05-25T21:05:41.022Z,16.41
2023-05-25T21:08:16.781Z,16.48
2023-05-25T21:10:37.901Z,16.60
2023-05-25T21:13:10.809Z,16.77
2023-05-25T21:15:45.632Z,16.85
2023-05-25T21:18:13.412Z,16.92
2023-05-25T21:20:48.921Z,17.02
2023-05-25T21:23:13.420Z,17.05
2023-05-25T21:25:49.188Z,17.04
2023-05-25T21:28:12.111Z,17.04
2023-05-25T21:30:47.759Z,17.08
2023-05-25T21:33:14.589Z,17.12
2023-05-25T21:35:42.440Z,17.19
2023-05-25T21:38:17.525Z,17.12
2023-05-25T21:40:52.478Z,17.08
2023-05-25T21:43:23.588Z,17.05
2023-05-25T21:45:57.279Z,17.11
2023-05-25T21:48:26.184Z,17.17
2023-05-25T21:50:52.418Z,17.26
2023-05-25T21:53:27.423Z,17.34
2023-05-25T21:55:50.698Z,17.42
2023-05-25T21:58:17.739Z,17.49
2023-05-25T22:00:45.790Z,17.53
2023-05-25T22:03:19.017Z,17.55
2023-05-25T22:05:38.602Z,17.56
2023-05-25T22:08:07.101Z,17.44
2023-05-25T22:10:32.514Z,17.35
2023-05-25T22:13:08.341Z,17.27
2023-05-25T22:15:36.195Z,17.28
2023-05-25T22:18:10.859Z,17.22
2023-05-25T22:20:45.808Z,17.24
2023-05-25T22:23:22.121Z,17.25
2023-05-25T22:25:57.001Z,17.24
2023-05-25T22:28:32.959Z,17.22
2023-05-25T22:31:08.288Z,17.27
2023-05-25T22:33:31.930Z,17.22
2023-05-25T22:36:07.646Z,17.20
2023-05-25T22:38:43.286Z,17.17
2023-05-25T22:41:22.833Z,17.09
2023-05-25T22:43:57.867Z,16.96
2023-05-25T22:46:31.591Z,16.92
2023-05-25T22:49:07.975Z,16.97
2023-05-25T22:51:35.079Z,17.05
2023-05-25T22:54:09.783Z,17.13
2023-05-25T22:56:37.237Z,17.21
2023-05-25T22:59:11.957Z,17.27
2023-05-25T23:01:35.188Z,17.41
2023-05-25T23:03:53.830Z,17.43
2023-05-25T23:06:23.142Z,17.43
2023-05-25T23:08:56.990Z,17.53
2023-05-25T23:11:20.523Z,17.57
2023-05-25T23:13:55.858Z,17.49
2023-05-25T23:16:19.906Z,17.35
2023-05-25T23:18:54.753Z,17.40
2023-05-25T23:21:17.383Z,17.42
2023-05-25T23:23:42.044Z,17.27
2023-05-25T23:26:18.369Z,17.26
2023-05-25T23:28:53.531Z,17.27
2023-05-25T23:31:28.024Z,17.26
2023-05-25T23:33:54.988Z,17.23
2023-05-25T23:36:18.653Z,17.31
2023-05-25T23:38:45.699Z,17.31
2023-05-25T23:41:09.407Z,17.30
2023-05-25T23:43:36.636Z,17.28
2023-05-25T23:46:10.809Z,17.18
2023-05-25T23:48:37.440Z,17.09
2023-05-25T23:51:13.459Z,16.97
2023-05-25T23:53:39.456Z,16.93
2023-05-25T23:56:12.729Z,16.87
2023-05-25T23:58:41.660Z,16.76
